createdAt,value
2023-03-17T00:01:44.637Z,1.03
2023-03-17T00:04:14.532Z,0.80
2023-03-17T00:06:42.799Z,0.77
2023-03-17T00:09:14.789Z,1.13
2023-03-17T00:11:43.121Z,0.57
2023-03-17T00:14:11.487Z,1.00
2023-03-17T00:16:40.413Z,0.83
2023-03-17T00:19:09.313Z,1.10
2023-03-17T00:21:37.842Z,0.70
2023-03-17T00:24:06.383Z,1.40
2023-03-17T00:26:36.080Z,0.70
2023-03-17T00:29:05.574Z,1.20
2023-03-17T00:31:34.908Z,1.33
2023-03-17T00:34:03.183Z,0.80
2023-03-17T00:36:33.683Z,1.00
2023-03-17T00:39:02.247Z,1.33
2023-03-17T00:41:32.932Z,1.40
2023-03-17T00:44:03.501Z,0.73
2023-03-17T00:46:36.093Z,1.23
2023-03-17T00:49:05.358Z,0.67
2023-03-17T00:51:33.771Z,0.90
2023-03-17T00:54:02.028Z,1.07
2023-03-17T00:56:30.345Z,0.80
2023-03-17T00:58:58.632Z,1.10
2023-03-17T01:01:28.304Z,0.90
2023-03-17T01:03:56.578Z,0.77
2023-03-17T01:06:24.845Z,0.77
2023-03-17T01:08:53.796Z,0.90
2023-03-17T01:11:22.787Z,1.23
2023-03-17T01:13:51.060Z,1.47
2023-03-17T01:16:19.348Z,0.70
2023-03-17T01:18:49.417Z,1.00
2023-03-17T01:21:17.751Z,1.00
2023-03-17T01:23:46.059Z,1.33
2023-03-17T01:26:14.358Z,0.53
2023-03-17T01:28:43.305Z,1.23
2023-03-17T01:31:12.638Z,0.87
2023-03-17T01:33:42.595Z,0.70
2023-03-17T01:36:12.616Z,0.50
2023-03-17T01:38:44.668Z,1.03
2023-03-17T01:41:15.018Z,1.43
2023-03-17T01:43:44.026Z,1.30
2023-03-17T01:46:23.450Z,0.80
2023-03-17T01:48:54.957Z,0.90
2023-03-17T01:51:25.196Z,0.93
2023-03-17T01:53:53.619Z,0.90
2023-03-17T01:56:22.226Z,0.77
2023-03-17T01:58:51.474Z,0.60
2023-03-17T02:01:21.082Z,0.80
2023-03-17T02:03:49.398Z,0.90
2023-03-17T02:06:18.163Z,0.90
2023-03-17T02:08:47.812Z,1.10
2023-03-17T02:11:17.050Z,0.87
2023-03-17T02:13:45.661Z,0.80
2023-03-17T02:16:15.800Z,0.80
2023-03-17T02:18:44.891Z,1.00
2023-03-17T02:21:48.878Z,0.83
2023-03-17T02:24:20.647Z,1.10
2023-03-17T02:26:49.478Z,0.87
2023-03-17T02:29:17.891Z,0.80
2023-03-17T02:31:46.476Z,1.30
2023-03-17T02:34:15.797Z,0.90
2023-03-17T02:36:44.195Z,1.17
2023-03-17T02:39:13.530Z,1.00
2023-03-17T02:41:43.301Z,0.80
2023-03-17T02:44:11.942Z,1.10
2023-03-17T02:46:40.243Z,0.87
2023-03-17T02:49:08.539Z,1.30
2023-03-17T02:51:37.151Z,0.83
2023-03-17T02:54:05.742Z,0.87
2023-03-17T02:56:34.031Z,1.10
2023-03-17T02:59:04.604Z,0.90
2023-03-17T03:01:34.113Z,0.90
2023-03-17T03:04:02.580Z,0.80
2023-03-17T03:06:31.663Z,0.70
2023-03-17T03:09:00.065Z,0.80
2023-03-17T03:11:29.372Z,1.20
2023-03-17T03:13:57.666Z,0.67
2023-03-17T03:16:27.665Z,0.50
2023-03-17T03:18:55.948Z,0.80
2023-03-17T03:21:24.557Z,0.80
2023-03-17T03:23:52.872Z,0.80
2023-03-17T03:26:21.482Z,1.10
2023-03-17T03:28:49.903Z,0.83
2023-03-17T03:31:18.278Z,1.10
2023-03-17T03:33:48.013Z,0.73
2023-03-17T03:36:16.292Z,0.50
2023-03-17T03:38:51.329Z,0.77
2023-03-17T03:41:19.625Z,0.93
2023-03-17T03:43:48.598Z,1.10
2023-03-17T03:46:18.231Z,1.20
2023-03-17T03:48:51.507Z,0.90
2023-03-17T03:51:19.827Z,0.67
2023-03-17T03:53:49.319Z,0.97
2023-03-17T03:56:17.583Z,0.50
2023-03-17T03:58:49.558Z,0.90
2023-03-17T04:01:18.075Z,0.80
2023-03-17T04:03:48.229Z,1.23
2023-03-17T04:06:17.486Z,0.90
2023-03-17T04:08:45.813Z,0.83
2023-03-17T04:11:14.135Z,0.63
2023-03-17T04:13:42.470Z,0.80
2023-03-17T04:16:11.104Z,0.90
2023-03-17T04:18:39.490Z,1.07
2023-03-17T04:21:09.316Z,0.57
2023-03-17T04:23:37.640Z,0.60
2023-03-17T04:26:05.961Z,0.60
2023-03-17T04:28:34.229Z,0.50
2023-03-17T04:31:04.962Z,0.70
2023-03-17T04:33:33.240Z,0.67
2023-03-17T04:36:01.997Z,0.70
2023-03-17T04:38:31.652Z,0.80
2023-03-17T04:41:03.767Z,0.50
2023-03-17T04:43:32.064Z,0.83
2023-03-17T04:46:00.646Z,0.90
2023-03-17T04:48:32.124Z,0.80
2023-03-17T04:51:00.878Z,0.70
2023-03-17T04:53:29.183Z,0.63
2023-03-17T04:55:58.943Z,0.83
2023-03-17T04:58:30.754Z,0.60
2023-03-17T05:00:59.776Z,0.63
2023-03-17T05:03:28.731Z,0.53
2023-03-17T05:05:59.723Z,0.50
2023-03-17T05:08:28.506Z,0.70
2023-03-17T05:10:57.555Z,0.40
2023-03-17T05:13:27.246Z,0.70
2023-03-17T05:15:56.340Z,0.60
2023-03-17T05:18:25.989Z,0.60
2023-03-17T05:20:54.302Z,0.73
2023-03-17T05:23:22.972Z,0.60
2023-03-17T05:25:51.230Z,0.70
2023-03-17T05:28:20.811Z,0.73
2023-03-17T05:30:50.758Z,0.50
2023-03-17T05:33:19.236Z,0.60
2023-03-17T05:35:47.872Z,0.90
2023-03-17T05:38:16.878Z,0.50
2023-03-17T05:40:45.581Z,0.77
2023-03-17T05:43:15.241Z,0.50
2023-03-17T05:45:43.855Z,0.70
2023-03-17T05:48:13.485Z,0.67
2023-03-17T05:50:42.689Z,0.73
2023-03-17T05:53:11.034Z,0.87
2023-03-17T05:55:39.355Z,0.40
2023-03-17T05:58:15.125Z,0.50
2023-03-17T06:00:43.661Z,0.53
2023-03-17T06:03:15.814Z,0.47
2023-03-17T06:05:44.222Z,0.73
2023-03-17T06:08:13.134Z,0.43
2023-03-17T06:10:43.595Z,0.40
2023-03-17T06:13:12.823Z,0.87
2023-03-17T06:15:42.305Z,0.60
2023-03-17T06:18:11.006Z,0.57
2023-03-17T06:20:41.715Z,0.40
2023-03-17T06:23:12.450Z,0.40
2023-03-17T06:25:40.740Z,0.33
2023-03-17T06:28:09.151Z,0.60
2023-03-17T06:30:40.540Z,0.83
2023-03-17T06:33:10.173Z,0.67
2023-03-17T06:35:39.235Z,0.70
2023-03-17T06:38:08.938Z,0.60
2023-03-17T06:40:37.377Z,0.50
2023-03-17T06:43:05.822Z,0.40
2023-03-17T06:45:34.258Z,0.60
2023-03-17T06:48:02.875Z,0.60
2023-03-17T06:50:34.478Z,0.57
2023-03-17T06:53:02.776Z,0.47
2023-03-17T06:55:33.868Z,0.60
2023-03-17T06:58:03.062Z,0.40
2023-03-17T07:00:35.192Z,0.80
2023-03-17T07:03:04.900Z,0.40
2023-03-17T07:05:33.646Z,0.53
2023-03-17T07:08:02.178Z,0.73
2023-03-17T07:10:33.253Z,0.50
2023-03-17T07:13:05.102Z,0.30
2023-03-17T07:15:35.881Z,0.80
2023-03-17T07:18:04.491Z,0.43
2023-03-17T07:20:35.856Z,0.50
2023-03-17T07:23:04.242Z,0.73
2023-03-17T07:25:37.040Z,0.60
2023-03-17T07:28:05.949Z,0.60
2023-03-17T07:30:34.215Z,0.40
2023-03-17T07:33:02.543Z,0.33
2023-03-17T07:35:31.316Z,0.47
2023-03-17T07:38:00.178Z,0.40
2023-03-17T07:40:28.484Z,0.60
2023-03-17T07:42:58.829Z,0.50
2023-03-17T07:45:27.898Z,0.80
2023-03-17T07:47:58.779Z,0.50
2023-03-17T07:50:27.619Z,0.47
2023-03-17T07:52:57.839Z,0.40
2023-03-17T07:55:28.931Z,0.50
2023-03-17T07:57:59.199Z,0.63
2023-03-17T08:00:30.042Z,0.67
2023-03-17T08:03:09.334Z,0.50
2023-03-17T08:05:39.710Z,0.43
2023-03-17T08:08:08.436Z,0.70
2023-03-17T08:10:37.574Z,0.43
2023-03-17T08:13:07.764Z,0.50
2023-03-17T08:15:38.847Z,0.50
2023-03-17T08:18:07.541Z,0.50
2023-03-17T08:20:36.353Z,0.40
2023-03-17T08:23:05.114Z,0.43
2023-03-17T08:25:33.692Z,0.40
2023-03-17T08:28:02.049Z,0.57
2023-03-17T08:30:40.624Z,0.57
2023-03-17T08:33:11.873Z,0.60
2023-03-17T08:35:42.783Z,0.33
2023-03-17T08:38:16.850Z,0.40
2023-03-17T08:40:45.838Z,0.33
2023-03-17T08:43:14.096Z,0.30
2023-03-17T08:45:43.915Z,0.50
2023-03-17T08:48:12.355Z,0.30
2023-03-17T08:50:40.708Z,0.83
2023-03-17T08:53:09.756Z,0.60
2023-03-17T08:55:39.052Z,0.53
2023-03-17T08:58:07.513Z,0.60
2023-03-17T09:00:37.939Z,0.30
2023-03-17T09:03:08.554Z,0.67
2023-03-17T09:05:40.390Z,0.40
2023-03-17T09:08:08.832Z,0.47
2023-03-17T09:10:37.208Z,0.70
2023-03-17T09:13:10.665Z,0.43
2023-03-17T09:15:39.821Z,0.33
2023-03-17T09:18:10.533Z,0.40
2023-03-17T09:20:38.871Z,0.47
2023-03-17T09:23:08.963Z,0.50
2023-03-17T09:25:37.497Z,0.57
2023-03-17T09:28:07.454Z,0.30
2023-03-17T09:30:36.789Z,0.60
2023-03-17T09:33:05.781Z,0.70
2023-03-17T09:35:35.958Z,0.60
2023-03-17T09:38:18.622Z,0.67
2023-03-17T09:40:49.047Z,0.40
2023-03-17T09:43:22.372Z,0.57
2023-03-17T09:45:52.511Z,0.40
2023-03-17T09:48:40.507Z,0.40
2023-03-17T09:51:19.409Z,0.77
2023-03-17T09:53:51.126Z,0.50
2023-03-17T09:56:20.025Z,0.70
2023-03-17T09:58:51.755Z,0.40
2023-03-17T10:01:20.252Z,0.57
2023-03-17T10:03:51.551Z,0.53
2023-03-17T10:06:31.488Z,0.47
2023-03-17T10:09:02.532Z,0.47
2023-03-17T10:11:38.404Z,0.27
2023-03-17T10:14:09.451Z,0.43
2023-03-17T10:16:41.496Z,0.50
2023-03-17T10:19:15.340Z,0.33
2023-03-17T10:21:51.464Z,0.40
2023-03-17T10:24:19.456Z,0.40
2023-03-17T10:26:50.232Z,0.40
2023-03-17T10:29:21.441Z,0.30
2023-03-17T10:31:49.928Z,0.63
2023-03-17T10:34:20.240Z,0.30
2023-03-17T10:36:51.093Z,0.40
2023-03-17T10:39:20.107Z,0.53
2023-03-17T10:41:50.239Z,0.67
2023-03-17T10:44:23.412Z,0.50
2023-03-17T10:46:55.565Z,0.50
2023-03-17T10:49:25.414Z,0.40
2023-03-17T10:51:55.598Z,0.30
2023-03-17T10:54:25.678Z,0.80
2023-03-17T10:56:59.208Z,0.40
2023-03-17T10:59:27.886Z,0.30
2023-03-17T11:01:57.914Z,0.70
2023-03-17T11:04:28.313Z,0.80
2023-03-17T11:07:01.629Z,0.50
2023-03-17T11:09:31.377Z,0.40
2023-03-17T11:12:04.938Z,0.30
2023-03-17T11:14:33.248Z,0.27
2023-03-17T11:17:02.397Z,0.60
2023-03-17T11:19:37.546Z,0.40
2023-03-17T11:22:10.029Z,0.43
2023-03-17T11:24:41.511Z,0.30
2023-03-17T11:27:14.116Z,0.50
2023-03-17T11:29:54.523Z,0.30
2023-03-17T11:32:28.683Z,0.33
2023-03-17T11:35:05.482Z,0.57
2023-03-17T11:37:39.896Z,0.30
2023-03-17T11:40:09.011Z,0.47
2023-03-17T11:42:40.333Z,0.53
2023-03-17T11:45:14.603Z,0.40
2023-03-17T11:47:43.963Z,0.30
2023-03-17T11:50:17.717Z,0.67
2023-03-17T11:52:50.198Z,0.60
2023-03-17T11:55:20.170Z,0.40
2023-03-17T11:57:48.937Z,0.60
2023-03-17T12:00:20.989Z,0.63
2023-03-17T12:02:50.846Z,0.40
2023-03-17T12:05:22.104Z,0.77
2023-03-17T12:07:53.229Z,0.40
2023-03-17T12:10:22.899Z,0.50
2023-03-17T12:12:53.147Z,0.60
2023-03-17T12:15:24.006Z,0.50
2023-03-17T12:17:53.532Z,0.20
2023-03-17T12:20:24.334Z,0.50
2023-03-17T12:22:57.117Z,0.33
2023-03-17T12:25:27.471Z,0.67
2023-03-17T12:27:58.409Z,0.77
2023-03-17T12:30:29.215Z,0.50
2023-03-17T12:32:59.514Z,0.40
2023-03-17T12:35:29.215Z,0.77
2023-03-17T12:37:59.996Z,0.47
2023-03-17T12:40:29.514Z,0.60
2023-03-17T12:42:59.622Z,0.33
2023-03-17T12:45:32.470Z,0.40
2023-03-17T12:48:07.137Z,0.50
2023-03-17T12:50:40.466Z,0.50
2023-03-17T12:53:15.803Z,0.40
2023-03-17T12:55:44.084Z,0.40
2023-03-17T12:58:18.133Z,0.30
2023-03-17T13:00:50.698Z,0.40
2023-03-17T13:03:21.935Z,0.33
2023-03-17T13:05:51.657Z,0.40
2023-03-17T13:08:25.607Z,0.53
2023-03-17T13:10:54.281Z,0.47
2023-03-17T13:13:37.770Z,0.40
2023-03-17T13:16:11.033Z,0.40
2023-03-17T13:18:49.865Z,0.30
2023-03-17T13:21:19.032Z,0.47
2023-03-17T13:23:49.371Z,0.47
2023-03-17T13:26:20.248Z,0.40
2023-03-17T13:28:52.853Z,0.40
2023-03-17T13:31:31.394Z,0.30
2023-03-17T13:33:59.830Z,0.50
2023-03-17T13:36:33.645Z,0.37
2023-03-17T13:39:18.828Z,0.60
2023-03-17T13:42:01.153Z,0.30
2023-03-17T13:44:42.768Z,0.40
2023-03-17T13:47:14.374Z,0.60
2023-03-17T13:49:42.883Z,0.60
2023-03-17T13:52:13.358Z,0.53
2023-03-17T13:54:44.325Z,0.50
2023-03-17T13:57:26.825Z,0.30
2023-03-17T13:59:57.556Z,0.50
2023-03-17T14:02:29.017Z,0.70
2023-03-17T14:04:58.111Z,0.53
2023-03-17T14:07:27.509Z,0.40
2023-03-17T14:10:02.149Z,0.53
2023-03-17T14:12:30.987Z,0.50
2023-03-17T14:15:06.571Z,0.60
2023-03-17T14:17:38.902Z,0.43
2023-03-17T14:20:27.080Z,0.70
2023-03-17T14:22:56.017Z,0.47
2023-03-17T14:25:26.561Z,0.47
2023-03-17T14:27:56.143Z,0.40
2023-03-17T14:30:28.441Z,0.60
2023-03-17T14:33:00.145Z,0.73
2023-03-17T14:35:33.416Z,0.50
2023-03-17T14:38:03.764Z,0.60
2023-03-17T14:40:41.941Z,0.40
2023-03-17T14:43:10.614Z,0.60
2023-03-17T14:46:09.480Z,0.37
2023-03-17T14:48:38.597Z,0.43
2023-03-17T14:51:13.931Z,0.63
2023-03-17T14:53:44.966Z,0.40
2023-03-17T14:56:14.669Z,0.60
2023-03-17T14:58:43.492Z,0.50
2023-03-17T15:01:14.573Z,0.60
2023-03-17T15:03:45.354Z,0.33
2023-03-17T15:06:23.983Z,0.50
2023-03-17T15:08:52.669Z,0.40
2023-03-17T15:11:23.565Z,0.50
2023-03-17T15:13:55.995Z,0.53
2023-03-17T15:16:25.555Z,0.53
2023-03-17T15:18:56.964Z,0.50
2023-03-17T15:21:26.130Z,0.60
2023-03-17T15:23:54.441Z,0.53
2023-03-17T15:26:28.036Z,0.57
2023-03-17T15:29:01.133Z,0.47
2023-03-17T15:31:30.824Z,0.50
2023-03-17T15:33:59.853Z,0.90
2023-03-17T15:36:32.966Z,0.57
2023-03-17T15:39:01.746Z,0.60
2023-03-17T15:41:31.443Z,0.60
2023-03-17T15:43:59.719Z,0.50
2023-03-17T15:46:30.905Z,0.40
2023-03-17T15:49:00.590Z,0.50
2023-03-17T15:51:28.911Z,0.50
2023-03-17T15:53:58.014Z,0.80
2023-03-17T15:56:26.316Z,0.43
2023-03-17T15:58:56.003Z,0.53
2023-03-17T16:01:27.646Z,0.70
2023-03-17T16:03:56.531Z,0.60
2023-03-17T16:06:24.919Z,0.43
2023-03-17T16:08:53.209Z,0.63
2023-03-17T16:11:28.138Z,0.40
2023-03-17T16:13:58.121Z,0.50
2023-03-17T16:16:28.660Z,0.60
2023-03-17T16:19:02.624Z,0.67
2023-03-17T16:21:30.925Z,0.87
2023-03-17T16:23:59.648Z,0.67
2023-03-17T16:26:28.141Z,0.63
2023-03-17T16:28:58.465Z,0.50
2023-03-17T16:31:29.254Z,0.60
2023-03-17T16:34:00.050Z,0.70
2023-03-17T16:36:31.425Z,0.70
2023-03-17T16:39:00.115Z,0.50
2023-03-17T16:41:29.522Z,0.30
2023-03-17T16:44:01.480Z,0.50
2023-03-17T16:46:34.451Z,0.53
2023-03-17T16:49:08.372Z,0.40
2023-03-17T16:51:36.684Z,0.53
2023-03-17T16:54:04.972Z,0.30
2023-03-17T16:56:33.714Z,0.60
2023-03-17T16:59:04.061Z,0.70
2023-03-17T17:01:32.379Z,0.47
2023-03-17T17:04:00.732Z,0.70
2023-03-17T17:06:29.079Z,0.70
2023-03-17T17:08:57.409Z,0.77
2023-03-17T17:11:25.706Z,0.70
2023-03-17T17:13:54.103Z,0.63
2023-03-17T17:16:24.513Z,0.70
2023-03-17T17:18:55.034Z,0.80
2023-03-17T17:21:23.803Z,1.07
2023-03-17T17:24:00.754Z,0.70
2023-03-17T17:26:29.114Z,0.70
2023-03-17T17:28:57.449Z,0.70
2023-03-17T17:31:27.200Z,1.30
2023-03-17T17:33:55.602Z,0.40
2023-03-17T17:36:27.103Z,0.57
2023-03-17T17:38:55.551Z,0.70
2023-03-17T17:41:24.306Z,0.60
2023-03-17T17:43:53.732Z,0.70
2023-03-17T17:46:22.853Z,0.53
2023-03-17T17:48:56.302Z,0.63
2023-03-17T17:51:29.817Z,0.87
2023-03-17T17:53:58.107Z,0.50
2023-03-17T17:56:26.990Z,1.00
2023-03-17T17:58:56.485Z,0.90
2023-03-17T18:01:24.989Z,1.00
2023-03-17T18:03:59.818Z,0.77
2023-03-17T18:06:31.177Z,0.73
2023-03-17T18:09:00.192Z,0.80
2023-03-17T18:11:30.262Z,0.90
2023-03-17T18:13:58.978Z,0.60
2023-03-17T18:16:30.296Z,0.60
2023-03-17T18:19:00.413Z,1.03
2023-03-17T18:21:28.770Z,0.87
2023-03-17T18:23:58.165Z,0.90
2023-03-17T18:26:26.441Z,0.70
2023-03-17T18:28:54.737Z,1.43
2023-03-17T18:31:24.447Z,0.87
2023-03-17T18:33:52.986Z,0.70
2023-03-17T18:36:22.882Z,1.37
2023-03-17T18:38:51.548Z,1.00
2023-03-17T18:41:19.809Z,0.97
2023-03-17T18:43:48.111Z,0.93
2023-03-17T18:46:16.486Z,0.87
2023-03-17T18:48:45.441Z,0.80
2023-03-17T18:51:13.919Z,1.10
2023-03-17T18:53:43.547Z,0.87
2023-03-17T18:56:11.979Z,1.27
2023-03-17T18:58:41.722Z,0.90
2023-03-17T19:01:10.130Z,1.03
2023-03-17T19:03:40.112Z,1.03
2023-03-17T19:06:12.062Z,1.00
2023-03-17T19:08:40.783Z,0.90
2023-03-17T19:11:11.598Z,0.90
2023-03-17T19:13:39.921Z,0.63
2023-03-17T19:16:16.377Z,1.20
2023-03-17T19:18:45.217Z,0.80
2023-03-17T19:21:14.207Z,0.90
2023-03-17T19:23:44.896Z,1.10
2023-03-17T19:26:14.629Z,0.90
2023-03-17T19:28:42.954Z,1.63
2023-03-17T19:31:15.065Z,0.80
2023-03-17T19:33:43.480Z,0.70
2023-03-17T19:36:14.115Z,0.50
2023-03-17T19:38:42.420Z,0.67
2023-03-17T19:41:10.741Z,0.93
2023-03-17T19:43:41.718Z,1.00
2023-03-17T19:46:10.458Z,1.20
2023-03-17T19:48:38.877Z,0.80
2023-03-17T19:51:08.029Z,0.90
2023-03-17T19:53:37.381Z,0.80
2023-03-17T19:56:06.372Z,0.87
2023-03-17T19:58:34.671Z,0.73
2023-03-17T20:01:04.349Z,1.30
2023-03-17T20:03:33.876Z,0.90
2023-03-17T20:06:06.410Z,1.10
2023-03-17T20:08:35.684Z,1.23
2023-03-17T20:11:05.566Z,0.90
2023-03-17T20:13:34.626Z,0.83
2023-03-17T20:16:05.781Z,1.20
2023-03-17T20:18:34.117Z,1.17
2023-03-17T20:21:05.593Z,1.10
2023-03-17T20:23:34.086Z,0.70
2023-03-17T20:26:02.831Z,1.20
2023-03-17T20:28:31.362Z,1.30
2023-03-17T20:30:59.746Z,1.07
2023-03-17T20:33:29.964Z,0.83
2023-03-17T20:35:59.822Z,1.60
2023-03-17T20:38:28.869Z,1.03
2023-03-17T20:41:07.360Z,1.30
2023-03-17T20:43:37.389Z,0.97
2023-03-17T20:46:08.642Z,1.15
2023-03-17T20:48:39.872Z,1.17
2023-03-17T20:51:10.145Z,0.97
2023-03-17T20:53:38.942Z,0.90
2023-03-17T20:56:08.582Z,1.00
2023-03-17T20:58:41.527Z,0.70
2023-03-17T21:01:12.818Z,1.40
2023-03-17T21:03:42.572Z,1.00
2023-03-17T21:06:13.298Z,0.90
2023-03-17T21:08:42.416Z,1.30
2023-03-17T21:11:10.728Z,1.33
2023-03-17T21:13:39.033Z,1.20
2023-03-17T21:16:07.542Z,0.80
2023-03-17T21:18:35.849Z,1.60
2023-03-17T21:21:05.666Z,1.10
2023-03-17T21:23:33.995Z,1.67
2023-03-17T21:26:02.323Z,1.53
2023-03-17T21:28:31.161Z,1.40
2023-03-17T21:30:59.513Z,1.40
2023-03-17T21:33:29.197Z,1.23
2023-03-17T21:35:58.786Z,1.30
2023-03-17T21:38:29.660Z,1.33
2023-03-17T21:40:57.986Z,1.50
2023-03-17T21:43:28.580Z,1.50
2023-03-17T21:45:58.145Z,1.53
2023-03-17T21:48:27.267Z,1.30
2023-03-17T21:50:55.616Z,1.47
2023-03-17T21:53:23.913Z,1.43
2023-03-17T21:55:53.877Z,1.10
2023-03-17T21:58:23.798Z,1.13
2023-03-17T22:00:52.390Z,1.33
2023-03-17T22:03:21.446Z,1.50
2023-03-17T22:05:50.848Z,1.30
2023-03-17T22:08:19.937Z,0.93
2023-03-17T22:10:48.984Z,1.47
2023-03-17T22:13:18.674Z,1.63
2023-03-17T22:15:47.568Z,1.10
2023-03-17T22:18:15.909Z,1.23
2023-03-17T22:20:45.096Z,1.10
2023-03-17T22:23:14.185Z,1.30
2023-03-17T22:25:42.494Z,1.33
2023-03-17T22:28:10.841Z,1.27
2023-03-17T22:30:42.218Z,1.00
2023-03-17T22:33:10.625Z,1.60
2023-03-17T22:35:43.203Z,1.57
2023-03-17T22:38:13.031Z,0.97
2023-03-17T22:40:41.878Z,1.20
2023-03-17T22:43:10.534Z,1.00
2023-03-17T22:45:40.190Z,0.80
2023-03-17T22:48:08.918Z,1.20
2023-03-17T22:50:37.465Z,1.20
2023-03-17T22:53:05.757Z,1.20
2023-03-17T22:55:34.041Z,1.50
2023-03-17T22:58:02.344Z,1.07
2023-03-17T23:00:32.370Z,1.30
2023-03-17T23:03:02.264Z,1.30
2023-03-17T23:05:30.951Z,1.47
2023-03-17T23:07:59.239Z,1.20
2023-03-17T23:10:30.084Z,1.27
2023-03-17T23:12:59.260Z,1.20
2023-03-17T23:15:28.066Z,0.87
2023-03-17T23:17:57.805Z,0.90
2023-03-17T23:20:27.819Z,1.07
2023-03-17T23:22:56.085Z,0.90
2023-03-17T23:25:24.567Z,1.50
2023-03-17T23:27:53.158Z,0.90
2023-03-17T23:30:21.477Z,1.20
2023-03-17T23:32:49.862Z,1.00
2023-03-17T23:35:19.641Z,0.90
2023-03-17T23:37:49.619Z,1.30
2023-03-17T23:40:21.412Z,0.90
2023-03-17T23:42:50.810Z,0.80
2023-03-17T23:45:19.177Z,1.17
2023-03-17T23:47:48.241Z,1.53
2023-03-17T23:50:17.866Z,1.33
2023-03-17T23:52:47.164Z,0.77
2023-03-17T23:55:17.210Z,1.00
2023-03-17T23:57:46.559Z,1.10
